createdAt,value
2022-12-03T00:01:08.193Z,58.53
2022-12-03T00:03:37.628Z,59.54
2022-12-03T00:06:06.647Z,59.48
2022-12-03T00:08:35.265Z,60.87
2022-12-03T00:11:04.311Z,60.31
2022-12-03T00:13:32.834Z,60.64
2022-12-03T00:16:01.813Z,60.68
2022-12-03T00:18:30.781Z,60.28
2022-12-03T00:20:59.576Z,60.35
2022-12-03T00:23:28.186Z,60.31
2022-12-03T00:25:56.970Z,60.15
2022-12-03T00:28:25.646Z,60.00
2022-12-03T00:30:55.074Z,60.96
2022-12-03T00:33:26.629Z,62.08
2022-12-03T00:35:55.668Z,64.30
2022-12-03T00:38:24.369Z,66.26
2022-12-03T00:40:53.366Z,67.10
2022-12-03T00:43:21.942Z,68.65
2022-12-03T00:45:50.938Z,68.01
2022-12-03T00:48:20.373Z,68.09
2022-12-03T00:50:49.433Z,66.95
2022-12-03T00:53:19.327Z,64.49
2022-12-03T00:55:51.678Z,63.17
2022-12-03T00:58:20.750Z,60.52
2022-12-03T01:00:49.300Z,60.25
2022-12-03T01:03:18.199Z,60.00
2022-12-03T01:05:46.804Z,59.96
2022-12-03T01:08:15.965Z,60.05
2022-12-03T01:10:44.778Z,58.67
2022-12-03T01:13:13.569Z,59.56
2022-12-03T01:15:42.297Z,58.59
2022-12-03T01:18:11.306Z,59.41
2022-12-03T01:20:39.902Z,59.90
2022-12-03T01:23:08.798Z,60.70
2022-12-03T01:25:37.740Z,60.90
2022-12-03T01:28:06.862Z,60.52
2022-12-03T01:30:55.417Z,61.08
2022-12-03T01:33:24.185Z,60.43
2022-12-03T01:35:52.785Z,59.00
2022-12-03T01:38:23.273Z,58.99
2022-12-03T01:40:52.377Z,58.34
2022-12-03T01:43:21.894Z,58.52
2022-12-03T01:45:50.690Z,58.89
2022-12-03T01:48:19.463Z,58.90
2022-12-03T01:50:48.342Z,59.25
2022-12-03T01:53:19.857Z,59.28
2022-12-03T01:55:49.175Z,59.89
2022-12-03T01:58:22.457Z,60.57
2022-12-03T02:00:51.874Z,60.10
2022-12-03T02:03:26.570Z,58.27
2022-12-03T02:05:55.831Z,56.33
2022-12-03T02:08:42.732Z,55.41
2022-12-03T02:11:26.605Z,53.46
2022-12-03T02:14:00.817Z,51.89
2022-12-03T02:16:30.844Z,50.45
2022-12-03T02:19:00.043Z,51.25
2022-12-03T02:21:48.872Z,50.46
2022-12-03T02:24:37.018Z,49.02
2022-12-03T02:27:05.936Z,47.34
2022-12-03T02:29:34.701Z,47.10
2022-12-03T02:32:03.722Z,45.51
2022-12-03T02:34:44.476Z,44.22
2022-12-03T02:37:18.552Z,44.42
2022-12-03T02:39:53.209Z,44.84
2022-12-03T02:42:38.950Z,43.87
2022-12-03T02:45:31.979Z,43.68
2022-12-03T02:48:08.345Z,44.96
2022-12-03T02:50:45.042Z,44.76
2022-12-03T02:53:19.093Z,44.23
2022-12-03T02:55:50.100Z,44.95
2022-12-03T02:58:20.339Z,46.94
2022-12-03T03:00:50.386Z,47.19
2022-12-03T03:03:21.534Z,50.73
2022-12-03T03:05:51.904Z,50.96
2022-12-03T03:08:21.823Z,50.32
2022-12-03T03:10:51.271Z,50.55
2022-12-03T03:13:22.001Z,51.51
2022-12-03T03:15:50.770Z,50.25
2022-12-03T03:18:19.848Z,51.92
2022-12-03T03:20:49.135Z,52.69
2022-12-03T03:23:23.693Z,51.47
2022-12-03T03:26:04.588Z,50.83
2022-12-03T03:28:35.702Z,52.07
2022-12-03T03:31:08.098Z,51.99
2022-12-03T03:33:40.518Z,50.12
2022-12-03T03:36:10.411Z,49.79
2022-12-03T03:38:40.603Z,49.80
2022-12-03T03:41:11.179Z,50.70
2022-12-03T03:43:43.108Z,50.89
2022-12-03T03:46:13.255Z,49.37
2022-12-03T03:48:43.665Z,50.60
2022-12-03T03:51:14.080Z,49.51
2022-12-03T03:53:45.553Z,50.21
2022-12-03T03:56:15.999Z,50.31
2022-12-03T03:58:45.056Z,47.99
2022-12-03T04:01:15.346Z,50.21
2022-12-03T04:03:45.041Z,50.95
2022-12-03T04:06:13.778Z,49.58
2022-12-03T04:08:42.654Z,50.68
2022-12-03T04:11:30.004Z,49.16
2022-12-03T04:13:59.126Z,48.40
2022-12-03T04:16:27.846Z,48.56
2022-12-03T04:18:56.845Z,47.68
2022-12-03T04:21:43.790Z,47.11
2022-12-03T04:24:13.472Z,47.88
2022-12-03T04:27:00.352Z,47.79
2022-12-03T04:29:29.519Z,45.56
2022-12-03T04:32:17.016Z,46.38
2022-12-03T04:35:04.820Z,45.96
2022-12-03T04:37:33.751Z,45.46
2022-12-03T04:40:02.585Z,46.97
2022-12-03T04:42:32.741Z,47.25
2022-12-03T04:45:01.586Z,47.58
2022-12-03T04:47:31.539Z,47.19
2022-12-03T04:50:02.466Z,45.14
2022-12-03T04:52:31.116Z,46.12
2022-12-03T04:55:00.517Z,46.83
2022-12-03T04:57:29.390Z,47.29
2022-12-03T04:59:58.446Z,44.38
2022-12-03T05:02:27.419Z,45.76
2022-12-03T05:04:56.806Z,45.00
2022-12-03T05:07:25.625Z,46.27
2022-12-03T05:09:54.975Z,45.41
2022-12-03T05:12:23.593Z,40.89
2022-12-03T05:14:53.275Z,43.16
2022-12-03T05:17:22.206Z,40.45
2022-12-03T05:20:09.345Z,41.17
2022-12-03T05:22:38.188Z,41.26
2022-12-03T05:25:07.837Z,37.66
2022-12-03T05:27:36.797Z,36.89
2022-12-03T05:30:06.079Z,36.66
2022-12-03T05:32:34.970Z,36.92
2022-12-03T05:35:03.612Z,38.48
2022-12-03T05:37:32.419Z,37.79
2022-12-03T05:40:01.003Z,39.62
2022-12-03T05:42:48.345Z,39.61
2022-12-03T05:45:17.315Z,37.86
2022-12-03T05:47:46.018Z,38.31
2022-12-03T05:50:14.957Z,38.84
2022-12-03T05:52:43.991Z,36.60
2022-12-03T05:55:13.641Z,39.57
2022-12-03T05:57:42.463Z,39.71
2022-12-03T06:00:16.166Z,40.22
2022-12-03T06:02:45.838Z,39.72
2022-12-03T06:05:16.496Z,39.81
2022-12-03T06:07:45.813Z,40.34
2022-12-03T06:10:17.673Z,40.72
2022-12-03T06:12:46.556Z,39.21
2022-12-03T06:15:16.083Z,39.57
2022-12-03T06:17:45.763Z,38.85
2022-12-03T06:20:17.667Z,39.10
2022-12-03T06:22:47.126Z,37.07
2022-12-03T06:25:16.924Z,37.95
2022-12-03T06:27:46.332Z,35.51
2022-12-03T06:30:15.768Z,34.04
2022-12-03T06:32:44.741Z,33.96
2022-12-03T06:35:22.379Z,33.46
2022-12-03T06:37:51.418Z,31.51
2022-12-03T06:40:20.162Z,31.63
2022-12-03T06:42:49.143Z,30.37
2022-12-03T06:45:17.794Z,29.66
2022-12-03T06:47:46.717Z,30.03
2022-12-03T06:50:15.952Z,29.51
2022-12-03T06:52:44.762Z,29.62
2022-12-03T06:55:14.770Z,30.51
2022-12-03T06:57:43.711Z,29.63
2022-12-03T07:00:13.526Z,30.31
2022-12-03T07:02:42.645Z,26.29
2022-12-03T07:05:15.114Z,29.92
2022-12-03T07:07:43.920Z,28.34
2022-12-03T07:10:13.087Z,27.86
2022-12-03T07:12:41.988Z,28.70
2022-12-03T07:15:11.565Z,26.68
2022-12-03T07:17:40.855Z,26.86
2022-12-03T07:20:10.456Z,26.70
2022-12-03T07:22:39.259Z,27.50
2022-12-03T07:25:08.535Z,25.87
2022-12-03T07:27:37.356Z,24.93
2022-12-03T07:30:08.804Z,28.06
2022-12-03T07:32:37.588Z,25.60
2022-12-03T07:35:08.385Z,24.89
2022-12-03T07:37:38.473Z,25.17
2022-12-03T07:40:07.959Z,25.79
2022-12-03T07:42:37.244Z,27.21
2022-12-03T07:45:06.539Z,26.10
2022-12-03T07:47:36.263Z,28.55
2022-12-03T07:50:05.909Z,25.22
2022-12-03T07:52:35.091Z,25.44
2022-12-03T07:55:03.713Z,26.15
2022-12-03T07:57:32.596Z,26.42
2022-12-03T08:00:01.370Z,29.24
2022-12-03T08:02:30.196Z,28.25
2022-12-03T08:04:59.077Z,28.06
2022-12-03T08:07:28.139Z,28.36
2022-12-03T08:09:57.476Z,25.68
2022-12-03T08:12:41.149Z,26.47
2022-12-03T08:15:20.187Z,29.60
2022-12-03T08:17:55.859Z,25.73
2022-12-03T08:20:45.314Z,26.99
2022-12-03T08:23:24.087Z,22.03
2022-12-03T08:25:54.520Z,27.47
2022-12-03T08:28:27.740Z,28.28
2022-12-03T08:31:21.584Z,26.38
2022-12-03T08:33:52.585Z,24.01
2022-12-03T08:36:25.716Z,24.66
2022-12-03T08:38:57.950Z,24.26
2022-12-03T08:41:45.441Z,25.62
2022-12-03T08:44:31.298Z,26.43
2022-12-03T08:47:14.913Z,25.57
2022-12-03T08:49:47.684Z,26.71
2022-12-03T08:52:27.955Z,24.86
2022-12-03T08:54:57.981Z,25.20
2022-12-03T08:57:30.859Z,23.67
2022-12-03T09:00:25.656Z,26.80
2022-12-03T09:02:59.704Z,23.71
2022-12-03T09:05:35.474Z,26.62
2022-12-03T09:08:04.225Z,25.22
2022-12-03T09:10:32.906Z,23.64
2022-12-03T09:13:01.751Z,23.92
2022-12-03T09:15:30.318Z,25.72
2022-12-03T09:17:59.297Z,26.90
2022-12-03T09:20:28.390Z,26.37
2022-12-03T09:22:57.088Z,28.70
2022-12-03T09:25:26.145Z,25.93
2022-12-03T09:27:55.366Z,27.49
2022-12-03T09:30:24.031Z,26.73
2022-12-03T09:32:52.762Z,25.25
2022-12-03T09:35:21.452Z,25.25
2022-12-03T09:37:50.389Z,27.68
2022-12-03T09:40:19.314Z,28.74
2022-12-03T09:42:48.653Z,30.25
2022-12-03T09:45:17.890Z,27.02
2022-12-03T09:47:49.162Z,30.07
2022-12-03T09:50:22.844Z,27.88
2022-12-03T09:52:53.172Z,27.17
2022-12-03T09:55:27.763Z,26.30
2022-12-03T09:57:58.711Z,27.90
2022-12-03T10:00:47.924Z,26.82
2022-12-03T10:03:22.118Z,25.83
2022-12-03T10:05:55.971Z,28.14
2022-12-03T10:08:30.791Z,27.73
2022-12-03T10:11:01.586Z,30.66
2022-12-03T10:13:32.653Z,29.52
2022-12-03T10:16:02.281Z,27.38
2022-12-03T10:18:38.290Z,28.29
2022-12-03T10:21:36.163Z,26.03
2022-12-03T10:24:27.685Z,27.26
2022-12-03T10:26:59.273Z,27.32
2022-12-03T10:29:34.060Z,27.46
2022-12-03T10:32:09.125Z,28.39
2022-12-03T10:34:40.654Z,29.24
2022-12-03T10:37:12.204Z,29.05
2022-12-03T10:40:03.972Z,31.16
2022-12-03T10:42:36.988Z,31.51
2022-12-03T10:45:16.013Z,33.62
2022-12-03T10:48:13.769Z,33.43
2022-12-03T10:51:15.522Z,36.48
2022-12-03T10:53:44.641Z,39.54
2022-12-03T10:56:27.034Z,40.85
2022-12-03T10:58:57.074Z,43.28
2022-12-03T11:01:27.939Z,43.26
2022-12-03T11:04:03.828Z,43.62
2022-12-03T11:06:36.794Z,44.57
2022-12-03T11:09:09.269Z,45.21
2022-12-03T11:11:38.380Z,47.61
2022-12-03T11:14:07.320Z,42.88
2022-12-03T11:16:56.681Z,45.06
2022-12-03T11:19:48.008Z,44.49
2022-12-03T11:22:29.245Z,46.44
2022-12-03T11:25:28.697Z,48.88
2022-12-03T11:28:16.424Z,45.00
2022-12-03T11:31:02.081Z,45.44
2022-12-03T11:33:37.450Z,47.66
2022-12-03T11:36:09.388Z,47.48
2022-12-03T11:38:52.931Z,45.80
2022-12-03T11:41:34.484Z,47.63
2022-12-03T11:44:31.251Z,48.37
2022-12-03T11:47:02.142Z,51.67
2022-12-03T11:49:47.525Z,51.17
2022-12-03T11:52:40.962Z,51.28
2022-12-03T11:55:27.545Z,51.82
2022-12-03T11:58:05.718Z,52.94
2022-12-03T12:00:34.916Z,53.38
2022-12-03T12:03:32.883Z,54.58
2022-12-03T12:06:08.443Z,55.29
2022-12-03T12:08:43.363Z,56.42
2022-12-03T12:11:23.025Z,56.32
2022-12-03T12:13:55.986Z,56.25
2022-12-03T12:16:54.543Z,56.92
2022-12-03T12:19:39.704Z,56.18
2022-12-03T12:22:28.830Z,57.10
2022-12-03T12:25:26.622Z,57.35
2022-12-03T12:27:56.119Z,57.60
2022-12-03T12:30:24.989Z,57.63
2022-12-03T12:33:13.786Z,57.94
2022-12-03T12:35:43.349Z,57.49
2022-12-03T12:38:18.459Z,57.49
2022-12-03T12:40:50.519Z,58.62
2022-12-03T12:43:24.744Z,58.53
2022-12-03T12:45:56.429Z,58.39
2022-12-03T12:48:26.951Z,58.69
2022-12-03T12:51:12.636Z,59.03
2022-12-03T12:53:46.115Z,59.67
2022-12-03T12:56:32.744Z,60.87
2022-12-03T12:59:12.177Z,61.55
2022-12-03T13:01:42.639Z,61.98
2022-12-03T13:04:17.035Z,61.06
2022-12-03T13:06:47.994Z,62.50
2022-12-03T13:09:19.914Z,61.77
2022-12-03T13:11:54.707Z,61.46
2022-12-03T13:14:32.322Z,61.63
2022-12-03T13:17:03.287Z,62.04
2022-12-03T13:19:46.683Z,62.50
2022-12-03T13:22:20.897Z,63.01
2022-12-03T13:24:51.970Z,63.33
2022-12-03T13:27:21.155Z,63.24
2022-12-03T13:30:03.106Z,63.23
2022-12-03T13:32:38.181Z,63.37
2022-12-03T13:35:25.832Z,64.25
2022-12-03T13:37:55.165Z,64.93
2022-12-03T13:40:32.811Z,65.51
2022-12-03T13:43:05.271Z,66.04
2022-12-03T13:45:38.693Z,65.68
2022-12-03T13:48:32.322Z,66.12
2022-12-03T13:51:14.698Z,65.92
2022-12-03T13:53:44.206Z,65.68
2022-12-03T13:56:42.223Z,66.08
2022-12-03T13:59:11.273Z,66.63
2022-12-03T14:01:40.249Z,68.08
2022-12-03T14:04:09.289Z,67.01
2022-12-03T14:06:38.544Z,67.26
2022-12-03T14:09:07.788Z,67.09
2022-12-03T14:11:54.938Z,68.14
2022-12-03T14:14:23.814Z,69.15
2022-12-03T14:16:59.843Z,69.38
2022-12-03T14:19:29.395Z,69.41
2022-12-03T14:21:58.129Z,69.60
2022-12-03T14:24:27.445Z,69.95
2022-12-03T14:26:56.306Z,71.60
2022-12-03T14:29:25.282Z,72.15
2022-12-03T14:31:54.286Z,71.45
2022-12-03T14:34:23.286Z,72.76
2022-12-03T14:36:52.396Z,73.35
2022-12-03T14:39:21.305Z,72.84
2022-12-03T14:42:08.338Z,72.67
2022-12-03T14:44:37.356Z,73.75
2022-12-03T14:47:06.285Z,73.11
2022-12-03T14:49:35.191Z,73.46
2022-12-03T14:52:03.804Z,73.58
2022-12-03T14:54:38.533Z,73.82
2022-12-03T14:57:07.530Z,75.06
2022-12-03T14:59:36.115Z,77.09
2022-12-03T15:02:10.232Z,75.82
2022-12-03T15:04:40.164Z,71.88
2022-12-03T15:07:10.060Z,73.30
2022-12-03T15:09:41.279Z,74.16
2022-12-03T15:12:12.397Z,74.50
2022-12-03T15:14:42.514Z,75.48
2022-12-03T15:17:11.452Z,76.99
2022-12-03T15:19:40.138Z,75.94
2022-12-03T15:22:08.859Z,70.47
2022-12-03T15:24:38.092Z,65.85
2022-12-03T15:27:06.765Z,66.43
2022-12-03T15:29:35.414Z,67.91
2022-12-03T15:32:04.293Z,71.91
2022-12-03T15:34:32.931Z,73.20
2022-12-03T15:37:01.705Z,70.81
2022-12-03T15:39:35.733Z,71.51
2022-12-03T15:42:06.109Z,73.65
2022-12-03T15:44:35.006Z,74.15
2022-12-03T15:47:05.034Z,74.52
2022-12-03T15:49:36.713Z,75.18
2022-12-03T15:52:05.805Z,75.59
2022-12-03T15:54:35.433Z,75.48
2022-12-03T15:57:04.335Z,76.84
2022-12-03T15:59:33.265Z,77.08
2022-12-03T16:02:02.068Z,78.45
2022-12-03T16:04:30.877Z,79.13
2022-12-03T16:06:59.798Z,77.92
2022-12-03T16:09:28.561Z,77.59
2022-12-03T16:11:57.917Z,77.56
2022-12-03T16:14:28.444Z,77.32
2022-12-03T16:17:03.778Z,77.76
2022-12-03T16:19:32.757Z,74.87
2022-12-03T16:22:02.627Z,71.73
2022-12-03T16:24:31.575Z,71.20
2022-12-03T16:27:00.311Z,71.82
2022-12-03T16:29:29.221Z,71.21
2022-12-03T16:31:57.900Z,71.41
2022-12-03T16:34:39.517Z,71.35
2022-12-03T16:37:12.467Z,71.94
2022-12-03T16:39:49.494Z,74.11
2022-12-03T16:42:20.051Z,73.16
2022-12-03T16:45:16.075Z,68.38
2022-12-03T16:47:48.246Z,67.24
2022-12-03T16:50:27.594Z,70.74
2022-12-03T16:52:58.924Z,72.28
2022-12-03T16:55:28.566Z,72.83
2022-12-03T16:57:57.378Z,73.08
2022-12-03T17:00:30.375Z,73.48
2022-12-03T17:02:59.340Z,73.86
2022-12-03T17:05:27.979Z,73.67
2022-12-03T17:08:05.865Z,72.77
2022-12-03T17:10:43.762Z,72.64
2022-12-03T17:13:12.666Z,72.66
2022-12-03T17:15:42.171Z,71.52
2022-12-03T17:18:11.263Z,67.86
2022-12-03T17:20:40.232Z,65.92
2022-12-03T17:23:09.283Z,66.59
2022-12-03T17:25:38.110Z,66.72
2022-12-03T17:28:06.944Z,66.65
2022-12-03T17:30:35.719Z,65.73
2022-12-03T17:33:04.746Z,66.16
2022-12-03T17:35:33.831Z,66.80
2022-12-03T17:38:05.735Z,68.17
2022-12-03T17:40:36.065Z,68.34
2022-12-03T17:43:04.717Z,68.55
2022-12-03T17:45:33.670Z,68.75
2022-12-03T17:48:02.639Z,69.34
2022-12-03T17:50:31.610Z,68.56
2022-12-03T17:53:00.471Z,65.53
2022-12-03T17:55:37.275Z,63.44
2022-12-03T17:58:14.314Z,63.45
2022-12-03T18:00:45.594Z,62.06
2022-12-03T18:03:17.653Z,61.74
2022-12-03T18:05:46.595Z,61.75
2022-12-03T18:08:15.443Z,61.37
2022-12-03T18:10:44.243Z,62.07
2022-12-03T18:13:17.236Z,62.27
2022-12-03T18:15:51.721Z,60.67
2022-12-03T18:18:21.001Z,61.70
2022-12-03T18:20:49.955Z,61.76
2022-12-03T18:23:18.920Z,62.22
2022-12-03T18:25:48.164Z,60.59
2022-12-03T18:28:17.145Z,59.92
2022-12-03T18:30:52.633Z,58.79
2022-12-03T18:33:24.155Z,58.99
2022-12-03T18:35:58.682Z,58.36
2022-12-03T18:38:32.034Z,59.08
2022-12-03T18:41:01.423Z,59.35
2022-12-03T18:43:35.858Z,59.41
2022-12-03T18:46:31.145Z,58.53
2022-12-03T18:49:02.555Z,58.97
2022-12-03T18:51:31.854Z,58.32
2022-12-03T18:54:00.411Z,57.86
2022-12-03T18:56:29.219Z,58.04
2022-12-03T18:58:57.857Z,57.62
2022-12-03T19:01:30.154Z,57.57
2022-12-03T19:03:59.150Z,57.33
2022-12-03T19:06:29.885Z,57.35
2022-12-03T19:08:59.294Z,56.35
2022-12-03T19:11:27.978Z,56.97
2022-12-03T19:13:58.242Z,55.84
2022-12-03T19:16:28.893Z,56.67
2022-12-03T19:18:59.504Z,57.39
2022-12-03T19:21:33.543Z,57.96
2022-12-03T19:24:23.850Z,57.60
2022-12-03T19:26:55.999Z,57.02
2022-12-03T19:29:25.742Z,55.14
2022-12-03T19:31:54.511Z,54.58
2022-12-03T19:34:23.546Z,54.33
2022-12-03T19:36:52.253Z,53.82
2022-12-03T19:39:26.371Z,51.92
2022-12-03T19:41:55.216Z,52.43
2022-12-03T19:44:23.811Z,52.89
2022-12-03T19:46:53.759Z,46.44
2022-12-03T19:49:22.620Z,46.23
2022-12-03T19:51:51.553Z,47.58
2022-12-03T19:54:20.275Z,48.36
2022-12-03T19:56:51.749Z,49.30
2022-12-03T19:59:21.244Z,49.39
2022-12-03T20:01:50.374Z,49.29
2022-12-03T20:04:21.205Z,48.57
2022-12-03T20:06:50.169Z,49.52
2022-12-03T20:09:18.977Z,49.25
2022-12-03T20:11:51.127Z,47.07
2022-12-03T20:14:20.127Z,46.51
2022-12-03T20:16:49.959Z,46.50
2022-12-03T20:19:19.451Z,46.56
2022-12-03T20:21:48.194Z,46.84
2022-12-03T20:24:18.796Z,47.12
2022-12-03T20:26:49.283Z,47.42
2022-12-03T20:29:18.882Z,48.56
2022-12-03T20:31:47.529Z,48.57
2022-12-03T20:34:16.367Z,49.04
2022-12-03T20:36:46.347Z,49.81
2022-12-03T20:39:15.322Z,49.72
2022-12-03T20:41:44.021Z,50.19
2022-12-03T20:44:14.801Z,50.43
2022-12-03T20:46:43.770Z,50.44
2022-12-03T20:49:12.525Z,49.91
2022-12-03T20:51:43.304Z,49.42
2022-12-03T20:54:11.901Z,48.61
2022-12-03T20:56:40.685Z,47.66
2022-12-03T20:59:13.028Z,47.35
2022-12-03T21:01:42.879Z,47.03
2022-12-03T21:04:14.298Z,45.79
2022-12-03T21:06:43.487Z,44.97
2022-12-03T21:09:12.886Z,46.62
2022-12-03T21:11:43.273Z,45.54
2022-12-03T21:14:12.568Z,43.82
2022-12-03T21:17:07.113Z,42.89
2022-12-03T21:19:32.305Z,44.62
2022-12-03T21:22:01.095Z,45.72
2022-12-03T21:24:30.852Z,46.54
2022-12-03T21:26:59.683Z,46.38
2022-12-03T21:29:28.688Z,46.42
2022-12-03T21:31:57.413Z,45.33
2022-12-03T21:34:28.115Z,45.17
2022-12-03T21:37:01.662Z,45.37
2022-12-03T21:39:30.439Z,44.01
2022-12-03T21:42:18.673Z,43.99
2022-12-03T21:44:48.255Z,43.28
2022-12-03T21:47:16.995Z,43.63
2022-12-03T21:49:45.822Z,43.19
2022-12-03T21:52:14.433Z,43.62
2022-12-03T21:54:43.300Z,42.75
2022-12-03T21:57:13.267Z,42.97
2022-12-03T21:59:42.321Z,42.77
2022-12-03T22:02:11.821Z,42.85
2022-12-03T22:04:41.274Z,43.48
2022-12-03T22:07:10.728Z,43.75
2022-12-03T22:09:39.826Z,43.61
2022-12-03T22:12:08.600Z,44.32
2022-12-03T22:14:38.334Z,44.33
2022-12-03T22:17:07.104Z,44.89
2022-12-03T22:19:36.577Z,43.67
2022-12-03T22:22:05.302Z,42.67
2022-12-03T22:24:34.141Z,42.60
2022-12-03T22:27:03.012Z,42.58
2022-12-03T22:29:32.392Z,43.35
2022-12-03T22:32:01.080Z,42.12
2022-12-03T22:34:29.933Z,43.51
2022-12-03T22:36:58.509Z,43.07
2022-12-03T22:39:27.508Z,42.03
2022-12-03T22:41:56.193Z,41.97
2022-12-03T22:44:25.219Z,41.90
2022-12-03T22:46:53.860Z,42.08
2022-12-03T22:49:22.733Z,42.76
2022-12-03T22:51:51.418Z,42.96
2022-12-03T22:54:23.903Z,41.56
2022-12-03T22:56:53.188Z,41.87
2022-12-03T22:59:21.868Z,41.67
2022-12-03T23:01:50.824Z,41.54
2022-12-03T23:04:19.554Z,42.07
2022-12-03T23:06:48.728Z,41.60
2022-12-03T23:09:17.531Z,41.02
2022-12-03T23:11:46.857Z,41.70
2022-12-03T23:14:15.591Z,40.79
2022-12-03T23:16:44.447Z,39.60
2022-12-03T23:19:13.368Z,40.39
2022-12-03T23:21:42.612Z,39.74
2022-12-03T23:24:11.665Z,40.75
2022-12-03T23:26:40.625Z,40.38
2022-12-03T23:29:09.448Z,39.14
2022-12-03T23:31:38.350Z,37.89
2022-12-03T23:34:07.598Z,38.01
2022-12-03T23:36:36.781Z,36.41
2022-12-03T23:39:05.510Z,37.61
2022-12-03T23:41:34.479Z,38.14
2022-12-03T23:44:03.227Z,38.40
2022-12-03T23:46:32.095Z,38.09
2022-12-03T23:49:01.149Z,39.21
2022-12-03T23:51:30.524Z,37.33
2022-12-03T23:53:59.200Z,37.27
2022-12-03T23:56:30.826Z,38.17
2022-12-03T23:59:00.217Z,38.27
